Time;durP1;ratioP1;P1;durP2;ratioP2;P2;SDS_P1;SDS_P2;PMS_P1;PMS_P2;Temp;Humidity;BMP_temperature;BMP_pressure;BME280_temperature;BME280_humidity;BME280_pressure;Samples;Min_cycle;Max_cycle;Signal;HPM_P1;HPM_P2
2022/06/22 00:01:01;;;;;;;;;;;;;;;;;;5009605;28;19929;-64
2022/06/22 00:03:31;;;;;;;;;;;;;;;;;;5012794;28;19921;-64
2022/06/22 00:05:57;;;;;;;;;;;;;;;;;;5013983;28;19921;-65
2022/06/22 00:08:24;;;;;;;;;;;;;;;;;;5014583;28;19927;-65
2022/06/22 00:10:50;;;;;;;;;;;;;;;;;;4999050;28;20000;-64
2022/06/22 00:13:15;;;;;;;;;;;;;;;;;;4995478;28;19986;-64
2022/06/22 00:15:42;;;;;;;;;;;;;;;;;;5013406;28;19917;-65
2022/06/22 00:18:12;;;;;;;;;;;;;;;;;;5008140;28;21811;-63
2022/06/22 00:20:41;;;;;;;;;;;;;;;;;;5008292;28;19924;-64
2022/06/22 00:23:09;;;;;;;;;;;;;;;;;;5014806;28;19928;-65
2022/06/22 00:25:34;;;;;;;;;;;;;;;;;;4993528;28;21811;-64
2022/06/22 00:27:59;;;;;;;;;;;;;;;;;;5015204;28;19922;-64
2022/06/22 00:30:27;;;;;;;;;;;;;;;;;;5012318;28;19921;-65
2022/06/22 00:32:52;;;;;;;;;;;;;;;;;;5010480;28;19921;-64
2022/06/22 00:35:19;;;;;;;;;;;;;;;;;;5014835;28;19928;-64
2022/06/22 00:37:47;;;;;;;;;;;;;;;;;;5010686;28;19920;-64
2022/06/22 00:40:13;;;;;;;;;;;;;;;;;;5009632;28;19972;-64
2022/06/22 00:42:38;;;;;;;;;;;;;;;;;;5013701;28;22690;-63
2022/06/22 00:45:06;;;;;;;;;;;;;;;;;;5012633;28;19952;-63
2022/06/22 00:47:31;;;;;;;;;;;;;;;;;;5014631;28;22303;-63
2022/06/22 00:49:59;;;;;;;;;;;;;;;;;;5021682;28;19920;-63
2022/06/22 00:52:27;;;;;;;;;;;;;;;;;;5016236;28;20772;-63
2022/06/22 00:54:55;;;;;;;;;;;;;;;;;;5015136;28;19921;-62
2022/06/22 00:57:21;;;;;;;;;;;;;;;;;;5018716;28;21868;-62
2022/06/22 00:59:46;;;;;;;;;;;;;;;;;;5011784;28;19929;-62
2022/06/22 01:02:12;;;;;;;;;;;;;;;;;;5016859;28;20645;-62
2022/06/22 01:04:37;;;;;;;;;;;;;;;;;;5018009;28;20252;-63
2022/06/22 01:07:03;;;;;;;;;;;;;;;;;;5013247;28;20023;-63
2022/06/22 01:09:30;;;;;;;;;;;;;;;;;;5017090;28;19921;-64
2022/06/22 01:14:42;;;;;;;;;;;;;;;;;;5016593;28;19921;-63
2022/06/22 01:17:10;;;;;;;;;;;;;;;;;;5021668;28;19921;-62
2022/06/22 01:19:35;;;;;;;;;;;;;;;;;;5017856;28;21948;-62
2022/06/22 01:22:00;;;;;;;;;;;;;;;;;;5015565;28;19932;-63
2022/06/22 01:24:28;;;;;;;;;;;;;;;;;;5016900;28;19946;-63
2022/06/22 01:26:53;;;;;;;;;;;;;;;;;;4997900;28;19927;-63
2022/06/22 01:29:18;;;;;;;;;;;;;;;;;;5017716;28;19921;-64
2022/06/22 01:31:44;;;;;;;;;;;;;;;;;;5016733;28;19924;-62
2022/06/22 01:34:13;;;;;;;;;;;;;;;;;;5012905;28;19956;-62
2022/06/22 01:36:42;;;;;;;;;;;;;;;;;;5002892;28;20699;-63
2022/06/22 01:39:09;;;;;;;;;;;;;;;;;;5012808;28;20023;-63
2022/06/22 01:41:37;;;;;;;;;;;;;;;;;;5015733;28;20295;-63
2022/06/22 01:44:02;;;;;;;;;;;;;;;;;;5013166;28;19917;-63
2022/06/22 01:46:30;;;;;;;;;;;;;;;;;;5015237;28;19928;-63
2022/06/22 01:48:58;;;;;;;;;;;;;;;;;;5015534;28;19916;-64
2022/06/22 01:51:23;;;;;;;;;;;;;;;;;;4997836;28;20514;-62
2022/06/22 01:53:48;;;;;;;;;;;;;;;;;;5011839;28;19955;-63
2022/06/22 01:56:14;;;;;;;;;;;;;;;;;;5011277;28;19925;-63
2022/06/22 01:58:41;;;;;;;;;;;;;;;;;;4997400;28;19925;-63
2022/06/22 02:01:10;;;;;;;;;;;;;;;;;;5016529;28;21776;-62
2022/06/22 02:03:37;;;;;;;;;;;;;;;;;;4998373;28;19924;-62
2022/06/22 02:06:03;;;;;;;;;;;;;;;;;;5012922;28;19975;-63
2022/06/22 02:08:33;;;;;;;;;;;;;;;;;;5018013;28;19916;-62
2022/06/22 02:11:01;;;;;;;;;;;;;;;;;;5012756;28;19916;-63
2022/06/22 02:13:28;;;;;;;;;;;;;;;;;;5016906;28;19925;-63
2022/06/22 02:15:54;;;;;;;;;;;;;;;;;;5014814;28;19932;-62
2022/06/22 02:18:19;;;;;;;;;;;;;;;;;;5016403;28;20952;-62
2022/06/22 02:20:47;;;;;;;;;;;;;;;;;;5015864;28;20852;-63
2022/06/22 02:23:12;;;;;;;;;;;;;;;;;;5016021;28;19928;-62
2022/06/22 02:25:38;;;;;;;;;;;;;;;;;;5015748;28;20018;-62
2022/06/22 02:28:05;;;;;;;;;;;;;;;;;;5015823;28;20495;-63
2022/06/22 02:30:33;;;;;;;;;;;;;;;;;;5010984;28;19929;-63
2022/06/22 02:32:58;;;;;;;;;;;;;;;;;;5016852;28;20498;-62
2022/06/22 02:35:26;;;;;;;;;;;;;;;;;;4993913;28;21553;-62
2022/06/22 02:37:51;;;;;;;;;;;;;;;;;;5014696;28;19927;-62
2022/06/22 02:40:17;;;;;;;;;;;;;;;;;;5017502;28;20354;-62
2022/06/22 02:45:26;;;;;;;;;;;;;;;;;;5017289;28;19916;-62
2022/06/22 02:47:53;;;;;;;;;;;;;;;;;;5001006;28;19925;-62
2022/06/22 02:50:18;;;;;;;;;;;;;;;;;;5015355;28;19931;-63
2022/06/22 02:52:44;;;;;;;;;;;;;;;;;;5012910;28;20521;-62
2022/06/22 02:55:11;;;;;;;;;;;;;;;;;;5027283;28;19921;-62
2022/06/22 02:57:37;;;;;;;;;;;;;;;;;;5014560;28;20055;-62
2022/06/22 03:00:02;;;;;;;;;;;;;;;;;;4995776;28;19933;-62
2022/06/22 03:02:32;;;;;;;;;;;;;;;;;;5018169;28;19927;-61
2022/06/22 03:04:57;;;;;;;;;;;;;;;;;;4995499;28;19929;-62
2022/06/22 03:07:23;;;;;;;;;;;;;;;;;;5012700;28;19921;-63
2022/06/22 03:09:48;;;;;;;;;;;;;;;;;;5017717;28;20307;-63
2022/06/22 03:12:16;;;;;;;;;;;;;;;;;;5011734;28;20365;-62
2022/06/22 03:14:41;;;;;;;;;;;;;;;;;;5011724;28;19972;-63
2022/06/22 03:17:11;;;;;;;;;;;;;;;;;;5009260;28;20373;-63
2022/06/22 03:19:37;;;;;;;;;;;;;;;;;;5016661;28;20017;-63
2022/06/22 03:22:04;;;;;;;;;;;;;;;;;;5013843;28;21561;-63
2022/06/22 03:24:30;;;;;;;;;;;;;;;;;;5015456;28;19928;-61
2022/06/22 03:26:57;;;;;;;;;;;;;;;;;;5012069;28;20024;-62
2022/06/22 03:29:23;;;;;;;;;;;;;;;;;;5015907;28;20691;-63
2022/06/22 03:31:48;;;;;;;;;;;;;;;;;;5012812;28;20011;-63
2022/06/22 03:34:17;;;;;;;;;;;;;;;;;;5012287;28;19920;-63
2022/06/22 03:36:45;;;;;;;;;;;;;;;;;;5011486;28;19948;-63
2022/06/22 03:39:10;;;;;;;;;;;;;;;;;;5024790;28;20066;-63
2022/06/22 03:41:35;;;;;;;;;;;;;;;;;;5014241;28;19999;-62
2022/06/22 03:44:03;;;;;;;;;;;;;;;;;;5012202;28;20489;-63
2022/06/22 03:46:28;;;;;;;;;;;;;;;;;;5014135;28;19928;-63
2022/06/22 03:48:56;;;;;;;;;;;;;;;;;;5014227;28;19920;-63
2022/06/22 03:51:26;;;;;;;;;;;;;;;;;;5012587;28;19921;-62
2022/06/22 03:53:54;;;;;;;;;;;;;;;;;;5014091;28;20524;-63
2022/06/22 03:56:22;;;;;;;;;;;;;;;;;;5013504;28;19975;-63
2022/06/22 03:58:48;;;;;;;;;;;;;;;;;;5014290;28;20299;-63
2022/06/22 04:01:17;;;;;;;;;;;;;;;;;;5015684;28;19929;-63
2022/06/22 04:03:42;;;;;;;;;;;;;;;;;;4996402;28;20032;-63
2022/06/22 04:06:13;;;;;;;;;;;;;;;;;;5010667;28;19921;-62
2022/06/22 04:08:42;;;;;;;;;;;;;;;;;;5013114;28;19920;-63
2022/06/22 04:11:07;;;;;;;;;;;;;;;;;;5015236;28;19928;-63
2022/06/22 04:13:32;;;;;;;;;;;;;;;;;;5012026;28;19925;-63
2022/06/22 04:16:00;;;;;;;;;;;;;;;;;;5012260;28;19925;-63
2022/06/22 04:18:28;;;;;;;;;;;;;;;;;;5015693;28;19932;-63
2022/06/22 04:20:54;;;;;;;;;;;;;;;;;;5006737;28;19936;-63
2022/06/22 04:23:21;;;;;;;;;;;;;;;;;;5018553;28;19921;-62
2022/06/22 04:25:51;;;;;;;;;;;;;;;;;;5013270;28;19924;-63
2022/06/22 04:28:19;;;;;;;;;;;;;;;;;;5021741;28;19921;-63
2022/06/22 04:30:45;;;;;;;;;;;;;;;;;;5018974;28;20575;-62
2022/06/22 04:33:12;;;;;;;;;;;;;;;;;;5018182;28;20055;-61
2022/06/22 04:35:40;;;;;;;;;;;;;;;;;;5016322;28;20402;-63
2022/06/22 04:38:08;;;;;;;;;;;;;;;;;;5017818;28;19921;-62
2022/06/22 04:40:35;;;;;;;;;;;;;;;;;;5018932;28;19921;-62
2022/06/22 04:43:03;;;;;;;;;;;;;;;;;;4988292;28;19943;-61
2022/06/22 04:45:28;;;;;;;;;;;;;;;;;;5002992;28;19927;-62
2022/06/22 04:47:58;;;;;;;;;;;;;;;;;;5017130;28;19920;-62
2022/06/22 04:50:23;;;;;;;;;;;;;;;;;;5016190;28;19951;-62
2022/06/22 04:52:51;;;;;;;;;;;;;;;;;;5016560;28;20388;-62
2022/06/22 04:55:17;;;;;;;;;;;;;;;;;;5021771;28;19955;-62
2022/06/22 04:57:42;;;;;;;;;;;;;;;;;;5018064;28;19920;-63
2022/06/22 05:00:10;;;;;;;;;;;;;;;;;;4997131;28;22031;-63
2022/06/22 05:02:35;;;;;;;;;;;;;;;;;;5014736;28;19936;-62
2022/06/22 05:05:02;;;;;;;;;;;;;;;;;;5012612;28;21835;-62
2022/06/22 05:07:32;;;;;;;;;;;;;;;;;;5018355;28;20304;-63
2022/06/22 05:10:00;;;;;;;;;;;;;;;;;;5017240;28;19967;-62
2022/06/22 05:12:25;;;;;;;;;;;;;;;;;;5012642;28;20036;-61
2022/06/22 05:14:50;;;;;;;;;;;;;;;;;;5011171;28;19933;-62
2022/06/22 05:17:18;;;;;;;;;;;;;;;;;;5014026;28;19955;-63
2022/06/22 05:19:46;;;;;;;;;;;;;;;;;;5017141;28;20857;-62
2022/06/22 05:22:12;;;;;;;;;;;;;;;;;;5011980;28;19921;-63
2022/06/22 05:24:43;;;;;;;;;;;;;;;;;;5020717;28;19916;-64
2022/06/22 05:27:08;;;;;;;;;;;;;;;;;;5020121;28;19952;-63
2022/06/22 05:29:34;;;;;;;;;;;;;;;;;;5012119;28;19921;-63
2022/06/22 05:32:02;;;;;;;;;;;;;;;;;;5010399;28;19967;-62
2022/06/22 05:34:27;;;;;;;;;;;;;;;;;;5006258;28;19921;-64
2022/06/22 05:36:54;;;;;;;;;;;;;;;;;;5015974;28;19926;-63
2022/06/22 05:39:22;;;;;;;;;;;;;;;;;;5014924;28;20254;-63
2022/06/22 05:41:48;;;;;;;;;;;;;;;;;;5016395;28;19943;-63
2022/06/22 05:44:14;;;;;;;;;;;;;;;;;;5020399;28;20423;-64
2022/06/22 05:46:40;;;;;;;;;;;;;;;;;;5021437;28;19928;-63
2022/06/22 05:49:05;;;;;;;;;;;;;;;;;;5017615;28;20011;-64
2022/06/22 05:51:32;;;;;;;;;;;;;;;;;;5021620;28;19917;-64
2022/06/22 05:53:58;;;;;;;;;;;;;;;;;;5018594;28;19923;-64
2022/06/22 05:56:26;;;;;;;;;;;;;;;;;;5019639;28;19925;-64
2022/06/22 05:58:54;;;;;;;;;;;;;;;;;;5022056;28;19921;-64
2022/06/22 06:01:19;;;;;;;;;;;;;;;;;;5017304;28;19932;-64
2022/06/22 06:03:44;;;;;;;;;;;;;;;;;;5016813;28;19979;-64
2022/06/22 06:06:12;;;;;;;;;;;;;;;;;;4999726;28;19921;-65
2022/06/22 06:08:42;;;;;;;;;;;;;;;;;;5016647;28;19921;-65
2022/06/22 06:11:10;;;;;;;;;;;;;;;;;;5020002;28;22025;-64
2022/06/22 06:13:38;;;;;;;;;;;;;;;;;;5013167;28;19917;-64
2022/06/22 06:16:03;;;;;;;;;;;;;;;;;;5016172;28;19917;-64
2022/06/22 06:18:31;;;;;;;;;;;;;;;;;;5015781;28;19920;-64
2022/06/22 06:20:59;;;;;;;;;;;;;;;;;;5017008;28;19924;-65
2022/06/22 06:23:27;;;;;;;;;;;;;;;;;;5013966;28;19959;-62
2022/06/22 06:28:36;;;;;;;;;;;;;;;;;;5024216;28;20203;-65
2022/06/22 06:31:05;;;;;;;;;;;;;;;;;;4996412;28;19921;-66
2022/06/22 06:33:33;;;;;;;;;;;;;;;;;;5015623;28;19943;-65
2022/06/22 06:36:01;;;;;;;;;;;;;;;;;;5010329;28;19979;-66
2022/06/22 06:38:27;;;;;;;;;;;;;;;;;;5015614;28;20521;-65
2022/06/22 06:41:01;;;;;;;;;;;;;;;;;;5013324;28;19925;-65
2022/06/22 06:43:27;;;;;;;;;;;;;;;;;;5013890;28;19928;-66
2022/06/22 06:45:53;;;;;;;;;;;;;;;;;;5016206;28;19920;-65
2022/06/22 06:48:18;;;;;;;;;;;;;;;;;;5028661;28;19997;-65
2022/06/22 06:50:45;;;;;;;;;;;;;;;;;;5012352;28;20554;-66
2022/06/22 06:53:11;;;;;;;;;;;;;;;;;;5002566;28;20211;-65
2022/06/22 06:55:39;;;;;;;;;;;;;;;;;;5016116;28;20888;-64
2022/06/22 06:58:04;;;;;;;;;;;;;;;;;;5013069;28;19932;-65
2022/06/22 07:00:30;;;;;;;;;;;;;;;;;;5013896;28;20289;-64
2022/06/22 07:02:56;;;;;;;;;;;;;;;;;;5015765;28;19924;-65
2022/06/22 07:05:21;;;;;;;;;;;;;;;;;;5014383;28;19921;-65
2022/06/22 07:07:47;;;;;;;;;;;;;;;;;;5012189;28;20023;-65
2022/06/22 07:10:14;;;;;;;;;;;;;;;;;;5015175;28;19917;-65
2022/06/22 07:12:40;;;;;;;;;;;;;;;;;;5015880;28;19923;-65
2022/06/22 07:15:06;;;;;;;;;;;;;;;;;;5015865;28;19971;-66
2022/06/22 07:17:36;;;;;;;;;;;;;;;;;;5014164;28;19920;-66
2022/06/22 07:20:04;;;;;;;;;;;;;;;;;;4997404;28;19925;-66
2022/06/22 07:22:31;;;;;;;;;;;;;;;;;;5012313;28;19995;-66
2022/06/22 07:24:59;;;;;;;;;;;;;;;;;;5013473;28;19928;-67
2022/06/22 07:27:24;;;;;;;;;;;;;;;;;;5013649;28;20288;-66
2022/06/22 07:29:54;;;;;;;;;;;;;;;;;;4992167;28;21893;-67
2022/06/22 07:32:19;;;;;;;;;;;;;;;;;;4994861;28;19924;-67
2022/06/22 07:34:47;;;;;;;;;;;;;;;;;;5014351;28;19921;-67
2022/06/22 07:37:17;;;;;;;;;;;;;;;;;;5015593;28;19921;-67
2022/06/22 07:39:42;;;;;;;;;;;;;;;;;;5018972;28;20015;-67
2022/06/22 07:42:07;;;;;;;;;;;;;;;;;;4999051;28;19999;-67
2022/06/22 07:44:35;;;;;;;;;;;;;;;;;;5018689;28;20055;-68
2022/06/22 07:47:05;;;;;;;;;;;;;;;;;;5012975;28;19921;-66
2022/06/22 07:49:30;;;;;;;;;;;;;;;;;;5024087;28;19955;-67
2022/06/22 07:51:58;;;;;;;;;;;;;;;;;;5018008;28;20011;-67
2022/06/22 07:54:27;;;;;;;;;;;;;;;;;;5019769;28;20007;-68
2022/06/22 07:56:58;;;;;;;;;;;;;;;;;;5005051;28;19925;-67
2022/06/22 07:59:23;;;;;;;;;;;;;;;;;;5019183;28;19929;-67
2022/06/22 08:01:50;;;;;;;;;;;;;;;;;;5001609;28;19958;-67
2022/06/22 08:04:16;;;;;;;;;;;;;;;;;;5022035;28;19994;-67
2022/06/22 08:06:43;;;;;;;;;;;;;;;;;;5023421;28;19960;-68
2022/06/22 08:09:11;;;;;;;;;;;;;;;;;;5020769;28;19995;-67
2022/06/22 08:11:39;;;;;;;;;;;;;;;;;;5021196;28;19921;-68
2022/06/22 08:14:07;;;;;;;;;;;;;;;;;;5021201;28;20890;-67
2022/06/22 08:16:32;;;;;;;;;;;;;;;;;;5020036;28;19954;-71
2022/06/22 08:18:57;;;;;;;;;;;;;;;;;;5019284;28;19963;-68
2022/06/22 08:21:23;;;;;;;;;;;;;;;;;;5017829;28;19932;-67
2022/06/22 08:23:48;;;;;;;;;;;;;;;;;;5022420;28;19952;-68
2022/06/22 08:26:13;;;;;;;;;;;;;;;;;;5020294;28;19927;-68
2022/06/22 08:28:39;;;;;;;;;;;;;;;;;;5014604;28;20588;-68
2022/06/22 08:31:06;;;;;;;;;;;;;;;;;;5022225;28;19940;-68
2022/06/22 08:33:31;;;;;;;;;;;;;;;;;;5020064;28;20546;-67
2022/06/22 08:35:59;;;;;;;;;;;;;;;;;;5018515;28;19921;-67
2022/06/22 08:38:25;;;;;;;;;;;;;;;;;;5023295;28;19927;-68
2022/06/22 08:40:50;;;;;;;;;;;;;;;;;;5018514;28;20020;-67
2022/06/22 08:43:16;;;;;;;;;;;;;;;;;;5017998;28;19917;-67
2022/06/22 08:45:44;;;;;;;;;;;;;;;;;;5021571;28;20001;-68
2022/06/22 08:48:12;;;;;;;;;;;;;;;;;;5021414;28;20020;-69
2022/06/22 08:50:37;;;;;;;;;;;;;;;;;;5019034;28;20062;-68
2022/06/22 08:53:05;;;;;;;;;;;;;;;;;;5018288;28;19932;-68
2022/06/22 08:55:32;;;;;;;;;;;;;;;;;;5013598;28;19925;-68
2022/06/22 08:57:58;;;;;;;;;;;;;;;;;;5020396;28;20281;-68
2022/06/22 09:00:23;;;;;;;;;;;;;;;;;;4999917;28;19951;-70
2022/06/22 09:02:48;;;;;;;;;;;;;;;;;;5013413;28;19921;-69
2022/06/22 09:05:16;;;;;;;;;;;;;;;;;;5014281;28;19958;-68
2022/06/22 09:07:42;;;;;;;;;;;;;;;;;;5017898;28;19921;-67
2022/06/22 09:10:09;;;;;;;;;;;;;;;;;;5019145;28;19971;-68
2022/06/22 09:12:34;;;;;;;;;;;;;;;;;;5016349;28;19925;-68
2022/06/22 09:15:00;;;;;;;;;;;;;;;;;;5013531;28;20334;-70
2022/06/22 09:17:26;;;;;;;;;;;;;;;;;;5024279;28;20368;-69
2022/06/22 09:19:51;;;;;;;;;;;;;;;;;;5017331;28;19933;-71
2022/06/22 09:22:19;;;;;;;;;;;;;;;;;;5019569;28;20456;-68
2022/06/22 09:24:46;;;;;;;;;;;;;;;;;;5021122;28;19921;-68
2022/06/22 09:27:14;;;;;;;;;;;;;;;;;;5029191;28;19920;-68
2022/06/22 09:29:39;;;;;;;;;;;;;;;;;;5016907;28;20050;-68
2022/06/22 09:32:05;;;;;;;;;;;;;;;;;;5019307;28;20572;-69
2022/06/22 09:34:32;;;;;;;;;;;;;;;;;;4997574;28;19928;-68
2022/06/22 09:37:00;;;;;;;;;;;;;;;;;;5025684;28;19995;-68
2022/06/22 09:39:28;;;;;;;;;;;;;;;;;;5021680;28;19921;-69
2022/06/22 09:41:55;;;;;;;;;;;;;;;;;;5020105;28;21883;-69
2022/06/22 09:44:23;;;;;;;;;;;;;;;;;;5015599;28;19925;-69
2022/06/22 09:46:51;;;;;;;;;;;;;;;;;;5009541;28;19920;-68
2022/06/22 09:49:20;;;;;;;;;;;;;;;;;;5017255;28;19999;-68
2022/06/22 09:51:45;;;;;;;;;;;;;;;;;;5015249;28;19925;-68
2022/06/22 09:56:19;;;;;;;;;;;;;;;;;;5021511;28;20415;-68
2022/06/22 09:56:58;;;;;;;;;;;;;;;;;;5018569;28;19925;-69
2022/06/22 09:59:26;;;;;;;;;;;;;;;;;;5022451;28;19956;-69
2022/06/22 10:01:54;;;;;;;;;;;;;;;;;;5015941;28;19921;-69
2022/06/22 10:04:22;;;;;;;;;;;;;;;;;;5025306;28;19916;-68
2022/06/22 10:06:50;;;;;;;;;;;;;;;;;;5020361;28;20108;-69
2022/06/22 10:09:15;;;;;;;;;;;;;;;;;;5015927;28;20007;-69
2022/06/22 10:11:40;;;;;;;;;;;;;;;;;;5016247;28;20477;-69
2022/06/22 10:14:08;;;;;;;;;;;;;;;;;;5021424;28;20339;-68
2022/06/22 10:16:35;;;;;;;;;;;;;;;;;;5009388;28;19921;-70
2022/06/22 10:19:03;;;;;;;;;;;;;;;;;;5010187;28;19981;-68
2022/06/22 10:21:28;;;;;;;;;;;;;;;;;;4997647;28;19917;-68
2022/06/22 10:23:53;;;;;;;;;;;;;;;;;;5021396;28;19924;-69
2022/06/22 10:26:18;;;;;;;;;;;;;;;;;;5019138;28;19928;-67
2022/06/22 10:28:49;;;;;;;;;;;;;;;;;;5013542;28;20758;-69
2022/06/22 10:31:16;;;;;;;;;;;;;;;;;;5010837;28;20090;-68
2022/06/22 10:33:44;;;;;;;;;;;;;;;;;;5016447;28;19921;-71
2022/06/22 10:36:11;;;;;;;;;;;;;;;;;;5001326;28;19920;-69
2022/06/22 10:38:37;;;;;;;;;;;;;;;;;;5016624;28;20437;-71
2022/06/22 10:46:37;;;;;;;;;;;;;;;;;;5016505;28;20006;-68
2022/06/22 10:49:08;;;;;;;;;;;;;;;;;;5030641;28;19925;-69
2022/06/22 10:51:36;;;;;;;;;;;;;;;;;;5016542;28;19935;-68
2022/06/22 10:54:04;;;;;;;;;;;;;;;;;;5004528;28;19925;-67
2022/06/22 10:56:32;;;;;;;;;;;;;;;;;;5015310;28;19952;-67
2022/06/22 10:58:59;;;;;;;;;;;;;;;;;;5013259;28;19983;-67
2022/06/22 11:01:27;;;;;;;;;;;;;;;;;;5013285;28;20027;-66
2022/06/22 11:03:57;;;;;;;;;;;;;;;;;;5007187;28;22283;-66
2022/06/22 11:06:25;;;;;;;;;;;;;;;;;;5002783;28;19921;-66
2022/06/22 11:08:51;;;;;;;;;;;;;;;;;;5005513;28;19925;-66
2022/06/22 11:11:16;;;;;;;;;;;;;;;;;;5025110;28;19929;-67
2022/06/22 11:13:43;;;;;;;;;;;;;;;;;;4998993;28;19921;-67
2022/06/22 11:16:09;;;;;;;;;;;;;;;;;;5012821;28;19944;-66
2022/06/22 11:18:36;;;;;;;;;;;;;;;;;;5012739;28;19927;-66
2022/06/22 11:21:04;;;;;;;;;;;;;;;;;;5009360;28;19928;-67
2022/06/22 11:23:29;;;;;;;;;;;;;;;;;;5013407;28;19925;-70
2022/06/22 11:31:26;;;;;;;;;;;;;;;;;;5012614;28;19931;-69
2022/06/22 11:33:57;;;;;;;;;;;;;;;;;;5019140;28;19927;-68
2022/06/22 11:36:27;;;;;;;;;;;;;;;;;;5009126;28;19932;-66
2022/06/22 11:38:53;;;;;;;;;;;;;;;;;;5019888;28;19921;-66
2022/06/22 11:41:21;;;;;;;;;;;;;;;;;;5014937;28;19925;-68
2022/06/22 11:43:46;;;;;;;;;;;;;;;;;;5023091;28;19923;-67
2022/06/22 11:46:11;;;;;;;;;;;;;;;;;;5012571;28;19931;-67
2022/06/22 11:48:37;;;;;;;;;;;;;;;;;;5022086;28;19923;-68
2022/06/22 11:51:03;;;;;;;;;;;;;;;;;;5021080;28;20098;-68
2022/06/22 11:53:29;;;;;;;;;;;;;;;;;;5013808;28;19921;-67
2022/06/22 11:55:57;;;;;;;;;;;;;;;;;;4999466;28;19924;-67
2022/06/22 11:58:23;;;;;;;;;;;;;;;;;;5017133;28;19921;-67
2022/06/22 12:00:48;;;;;;;;;;;;;;;;;;5015627;28;19931;-68
2022/06/22 12:03:18;;;;;;;;;;;;;;;;;;5014465;28;21448;-67
2022/06/22 12:05:44;;;;;;;;;;;;;;;;;;5020638;28;20066;-68
2022/06/22 12:08:11;;;;;;;;;;;;;;;;;;5008052;28;21377;-68
2022/06/22 12:10:39;;;;;;;;;;;;;;;;;;5013636;28;19925;-68
2022/06/22 12:13:06;;;;;;;;;;;;;;;;;;5010130;28;19921;-68
2022/06/22 12:15:31;;;;;;;;;;;;;;;;;;5007938;28;19932;-67
2022/06/22 12:17:56;;;;;;;;;;;;;;;;;;5010740;28;19925;-69
2022/06/22 12:20:27;;;;;;;;;;;;;;;;;;5002299;28;19921;-68
2022/06/22 12:22:53;;;;;;;;;;;;;;;;;;5006539;28;22024;-69
2022/06/22 12:25:20;;;;;;;;;;;;;;;;;;5010141;28;19931;-67
2022/06/22 12:27:47;;;;;;;;;;;;;;;;;;5004758;28;19916;-67
2022/06/22 12:30:13;;;;;;;;;;;;;;;;;;5015489;28;20004;-66
2022/06/22 12:32:38;;;;;;;;;;;;;;;;;;5018689;28;19958;-67
2022/06/22 12:35:05;;;;;;;;;;;;;;;;;;5011461;28;19921;-69
2022/06/22 12:37:30;;;;;;;;;;;;;;;;;;5009493;28;19933;-67
2022/06/22 12:39:58;;;;;;;;;;;;;;;;;;5013163;28;19982;-68
2022/06/22 12:42:23;;;;;;;;;;;;;;;;;;5001099;28;19921;-70
2022/06/22 12:44:49;;;;;;;;;;;;;;;;;;5013007;28;19932;-68
2022/06/22 12:47:14;;;;;;;;;;;;;;;;;;5006130;28;19928;-68
2022/06/22 12:49:42;;;;;;;;;;;;;;;;;;5009151;28;19936;-67
2022/06/22 12:52:10;;;;;;;;;;;;;;;;;;5006582;28;19944;-67
2022/06/22 12:54:40;;;;;;;;;;;;;;;;;;4987407;28;19921;-68
2022/06/22 12:57:10;;;;;;;;;;;;;;;;;;5002995;28;19956;-67
2022/06/22 12:59:36;;;;;;;;;;;;;;;;;;5018634;28;20063;-68
2022/06/22 13:02:04;;;;;;;;;;;;;;;;;;5021275;28;20628;-68
2022/06/22 13:04:29;;;;;;;;;;;;;;;;;;5003234;28;20071;-68
2022/06/22 13:06:54;;;;;;;;;;;;;;;;;;5021489;28;19917;-68
2022/06/22 13:09:19;;;;;;;;;;;;;;;;;;5021212;28;21348;-66
2022/06/22 13:11:50;;;;;;;;;;;;;;;;;;5023234;28;19925;-69
2022/06/22 13:14:15;;;;;;;;;;;;;;;;;;5020061;28;20031;-73
2022/06/22 13:16:43;;;;;;;;;;;;;;;;;;5018959;28;20372;-74
2022/06/22 13:19:11;;;;;;;;;;;;;;;;;;5018507;28;19921;-67
2022/06/22 13:21:37;;;;;;;;;;;;;;;;;;5012437;28;20375;-67
2022/06/22 13:24:03;;;;;;;;;;;;;;;;;;5018016;28;19924;-66
2022/06/22 13:26:28;;;;;;;;;;;;;;;;;;5016402;28;19979;-67
2022/06/22 13:28:56;;;;;;;;;;;;;;;;;;5017989;28;20604;-66
2022/06/22 13:31:26;;;;;;;;;;;;;;;;;;5022687;28;19964;-65
2022/06/22 13:33:52;;;;;;;;;;;;;;;;;;5018446;28;19929;-66
2022/06/22 13:36:17;;;;;;;;;;;;;;;;;;5013113;28;19932;-67
2022/06/22 13:38:45;;;;;;;;;;;;;;;;;;5012940;28;20781;-64
2022/06/22 13:41:12;;;;;;;;;;;;;;;;;;5010626;28;19921;-65
2022/06/22 13:43:37;;;;;;;;;;;;;;;;;;5012535;28;19917;-69
2022/06/22 13:46:05;;;;;;;;;;;;;;;;;;5012204;28;19959;-66
2022/06/22 13:48:30;;;;;;;;;;;;;;;;;;5017385;28;19920;-70
2022/06/22 13:53:32;;;;;;;;;;;;;;;;;;5020201;28;20005;-68
2022/06/22 13:55:59;;;;;;;;;;;;;;;;;;5015833;28;19917;-73
2022/06/22 13:58:24;;;;;;;;;;;;;;;;;;5016514;28;19925;-66
2022/06/22 14:00:52;;;;;;;;;;;;;;;;;;5027828;28;20669;-68
2022/06/22 14:03:17;;;;;;;;;;;;;;;;;;5018744;28;19975;-66
2022/06/22 14:05:44;;;;;;;;;;;;;;;;;;5012546;28;19956;-67
2022/06/22 14:08:15;;;;;;;;;;;;;;;;;;5012674;28;20384;-68
2022/06/22 14:10:40;;;;;;;;;;;;;;;;;;5005750;28;20097;-70
2022/06/22 14:13:05;;;;;;;;;;;;;;;;;;5007359;28;20908;-66
2022/06/22 14:15:31;;;;;;;;;;;;;;;;;;5015265;28;19960;-67
2022/06/22 14:17:59;;;;;;;;;;;;;;;;;;5015688;28;19921;-66
2022/06/22 14:20:24;;;;;;;;;;;;;;;;;;5021234;28;20328;-66
2022/06/22 14:22:54;;;;;;;;;;;;;;;;;;5016899;28;20385;-66
2022/06/22 14:25:21;;;;;;;;;;;;;;;;;;5018355;28;19921;-67
2022/06/22 14:27:47;;;;;;;;;;;;;;;;;;5013013;28;19999;-67
2022/06/22 14:30:12;;;;;;;;;;;;;;;;;;5030538;28;19921;-73
2022/06/22 14:32:40;;;;;;;;;;;;;;;;;;5017189;28;19921;-69
2022/06/22 14:35:06;;;;;;;;;;;;;;;;;;5011277;28;20007;-67
2022/06/22 14:37:32;;;;;;;;;;;;;;;;;;5018726;28;19917;-66
2022/06/22 14:40:02;;;;;;;;;;;;;;;;;;5020088;28;19960;-67
2022/06/22 14:42:30;;;;;;;;;;;;;;;;;;4993067;28;20039;-67
2022/06/22 14:44:55;;;;;;;;;;;;;;;;;;5005654;28;19997;-67
2022/06/22 14:47:23;;;;;;;;;;;;;;;;;;5011788;28;20550;-66
2022/06/22 14:49:48;;;;;;;;;;;;;;;;;;5015342;28;19963;-68
2022/06/22 14:52:14;;;;;;;;;;;;;;;;;;5019206;28;20648;-68
2022/06/22 14:54:39;;;;;;;;;;;;;;;;;;5013245;28;19960;-65
2022/06/22 14:57:09;;;;;;;;;;;;;;;;;;5008321;28;19920;-66
2022/06/22 14:59:37;;;;;;;;;;;;;;;;;;4992693;28;19929;-66
2022/06/22 15:02:03;;;;;;;;;;;;;;;;;;5011984;28;19928;-66
2022/06/22 15:04:30;;;;;;;;;;;;;;;;;;5011733;28;19925;-66
2022/06/22 15:06:56;;;;;;;;;;;;;;;;;;4998131;28;19924;-65
2022/06/22 15:09:21;;;;;;;;;;;;;;;;;;5018771;28;19925;-69
2022/06/22 15:14:33;;;;;;;;;;;;;;;;;;5014297;28;20383;-66
2022/06/22 15:16:59;;;;;;;;;;;;;;;;;;5014829;28;19917;-67
2022/06/22 15:19:27;;;;;;;;;;;;;;;;;;5016083;28;19967;-66
2022/06/22 15:21:52;;;;;;;;;;;;;;;;;;4996367;28;19920;-69
2022/06/22 15:24:20;;;;;;;;;;;;;;;;;;5014101;28;19917;-68
2022/06/22 15:26:46;;;;;;;;;;;;;;;;;;5009100;28;19936;-66
2022/06/22 15:29:15;;;;;;;;;;;;;;;;;;5013726;28;19955;-65
2022/06/22 15:31:42;;;;;;;;;;;;;;;;;;5009988;28;19925;-64
2022/06/22 15:34:09;;;;;;;;;;;;;;;;;;5009990;28;20542;-69
2022/06/22 15:36:35;;;;;;;;;;;;;;;;;;5011924;28;19927;-68
2022/06/22 15:39:02;;;;;;;;;;;;;;;;;;5013470;28;19921;-66
2022/06/22 15:41:28;;;;;;;;;;;;;;;;;;5018210;28;19920;-64
2022/06/22 15:43:56;;;;;;;;;;;;;;;;;;5015821;28;19921;-63
2022/06/22 15:46:24;;;;;;;;;;;;;;;;;;5006948;28;19992;-66
2022/06/22 15:48:49;;;;;;;;;;;;;;;;;;5003576;28;19966;-64
2022/06/22 15:51:17;;;;;;;;;;;;;;;;;;5007959;28;19925;-65
2022/06/22 15:53:43;;;;;;;;;;;;;;;;;;5013949;28;19990;-64
2022/06/22 15:56:08;;;;;;;;;;;;;;;;;;5009399;28;19920;-67
2022/06/22 15:58:33;;;;;;;;;;;;;;;;;;5011967;28;20002;-67
2022/06/22 16:01:00;;;;;;;;;;;;;;;;;;5013080;28;19947;-65
2022/06/22 16:03:25;;;;;;;;;;;;;;;;;;5013118;28;20742;-69
2022/06/22 16:05:51;;;;;;;;;;;;;;;;;;5007390;28;19921;-65
2022/06/22 16:08:19;;;;;;;;;;;;;;;;;;5011924;28;20016;-65
2022/06/22 16:13:27;;;;;;;;;;;;;;;;;;5011870;28;19974;-64
2022/06/22 16:13:30;;;;;;;;;;;;;;;;;;5012691;28;20885;-66
2022/06/22 16:15:57;;;;;;;;;;;;;;;;;;5012403;28;20360;-67
2022/06/22 16:18:22;;;;;;;;;;;;;;;;;;5012531;28;22022;-68
2022/06/22 16:20:48;;;;;;;;;;;;;;;;;;5008927;28;19922;-67
2022/06/22 16:23:15;;;;;;;;;;;;;;;;;;5008079;28;20547;-68
2022/06/22 16:25:43;;;;;;;;;;;;;;;;;;5009902;28;19952;-66
2022/06/22 16:28:09;;;;;;;;;;;;;;;;;;5009389;28;19921;-66
2022/06/22 16:30:34;;;;;;;;;;;;;;;;;;5010579;28;19925;-67
2022/06/22 16:33:02;;;;;;;;;;;;;;;;;;5013274;28;19917;-69
2022/06/22 16:35:27;;;;;;;;;;;;;;;;;;5011748;28;19928;-68
2022/06/22 16:37:52;;;;;;;;;;;;;;;;;;4998807;28;19932;-67
2022/06/22 16:40:17;;;;;;;;;;;;;;;;;;5014074;28;19921;-67
2022/06/22 16:42:43;;;;;;;;;;;;;;;;;;4998477;28;19925;-65
2022/06/22 16:45:11;;;;;;;;;;;;;;;;;;5011260;28;19921;-65
2022/06/22 16:47:39;;;;;;;;;;;;;;;;;;5010180;28;20051;-65
2022/06/22 16:50:04;;;;;;;;;;;;;;;;;;5016206;28;20268;-65
2022/06/22 16:52:31;;;;;;;;;;;;;;;;;;5007314;28;19935;-65
2022/06/22 16:54:56;;;;;;;;;;;;;;;;;;5009654;28;19925;-65
2022/06/22 16:57:22;;;;;;;;;;;;;;;;;;5008324;28;20051;-65
2022/06/22 16:59:47;;;;;;;;;;;;;;;;;;5013068;28;19970;-65
2022/06/22 17:02:12;;;;;;;;;;;;;;;;;;5014740;28;20029;-66
2022/06/22 17:04:40;;;;;;;;;;;;;;;;;;5008056;28;19920;-65
2022/06/22 17:07:05;;;;;;;;;;;;;;;;;;5012328;28;19928;-69